createdAt,value
2023-04-24T00:04:59.778Z,26.56
2023-04-24T00:10:07.051Z,26.47
2023-04-24T00:15:14.348Z,26.31
2023-04-24T00:20:21.626Z,26.27
2023-04-24T00:25:28.894Z,26.15
2023-04-24T00:30:36.192Z,26.23
2023-04-24T00:35:43.501Z,26.27
2023-04-24T00:40:50.737Z,26.26
2023-04-24T00:45:58.041Z,26.25
2023-04-24T00:51:05.248Z,26.22
2023-04-24T00:56:47.613Z,26.21
2023-04-24T01:02:33.545Z,26.17
2023-04-24T01:08:21.375Z,26.17
2023-04-24T01:13:51.343Z,26.11
2023-04-24T01:19:12.719Z,26.10
2023-04-24T01:30:52.701Z,25.92
2023-04-24T01:36:09.154Z,25.88
2023-04-24T01:45:52.039Z,25.84
2023-04-24T01:47:11.960Z,25.77
2023-04-24T01:52:20.718Z,25.72
2023-04-24T01:58:08.534Z,25.66
2023-04-24T02:05:55.486Z,25.60
2023-04-24T02:09:39.016Z,25.56
2023-04-24T02:15:36.803Z,25.48
2023-04-24T02:21:19.143Z,25.43
2023-04-24T02:26:26.897Z,25.38
2023-04-24T02:37:35.945Z,25.28
2023-04-24T02:42:52.634Z,25.23
2023-04-24T02:48:00.045Z,25.20
2023-04-24T02:53:51.268Z,25.15
2023-04-24T02:59:48.985Z,25.10
2023-04-24T03:05:04.615Z,25.09
2023-04-24T03:10:51.941Z,25.03
2023-04-24T03:16:14.510Z,25.00
2023-04-24T03:21:28.599Z,24.95
2023-04-24T03:27:46.263Z,24.92
2023-04-24T03:33:14.320Z,24.87
2023-04-24T03:38:52.279Z,24.85
2023-04-24T03:44:24.366Z,24.79
2023-04-24T03:49:50.687Z,24.77
2023-04-24T03:55:48.042Z,24.73
2023-04-24T04:00:56.906Z,24.59
2023-04-24T04:06:11.578Z,24.62
2023-04-24T04:11:29.533Z,24.62
2023-04-24T04:16:38.954Z,24.53
2023-04-24T04:22:09.716Z,24.56
2023-04-24T04:27:56.907Z,24.51
2023-04-24T04:33:48.419Z,24.48
2023-04-24T04:38:52.407Z,24.44
2023-04-24T04:44:15.871Z,24.39
2023-04-24T04:49:35.731Z,24.41
2023-04-24T04:54:43.604Z,24.36
2023-04-24T04:59:51.242Z,24.31
2023-04-24T05:04:59.491Z,24.30
2023-04-24T05:11:10.084Z,24.27
2023-04-24T05:15:19.684Z,24.26
2023-04-24T05:20:27.640Z,24.24
2023-04-24T05:25:50.274Z,24.19
2023-04-24T05:31:02.709Z,24.14
2023-04-24T05:36:45.345Z,24.15
2023-04-24T05:42:27.978Z,24.11
2023-04-24T05:47:59.598Z,24.09
2023-04-24T05:53:07.572Z,24.09
2023-04-24T05:58:50.260Z,24.05
2023-04-24T06:04:00.192Z,24.03
2023-04-24T06:09:12.331Z,24.00
2023-04-24T06:14:19.870Z,24.01
2023-04-24T06:19:27.638Z,23.96
2023-04-24T06:25:10.331Z,23.95
2023-04-24T06:30:52.913Z,23.92
2023-04-24T06:36:21.206Z,23.87
2023-04-24T06:41:13.274Z,23.87
2023-04-24T06:46:26.474Z,23.80
2023-04-24T06:51:40.317Z,23.76
2023-04-24T06:56:56.214Z,23.76
2023-04-24T07:02:03.764Z,23.71
2023-04-24T07:07:11.515Z,23.70
2023-04-24T07:12:58.897Z,23.67
2023-04-24T07:18:06.323Z,23.66
2023-04-24T07:23:14.051Z,23.69
2023-04-24T07:28:21.717Z,23.64
2023-04-24T07:33:39.598Z,23.67
2023-04-24T07:38:47.219Z,23.64
2023-04-24T07:43:54.882Z,23.67
2023-04-24T07:49:13.043Z,23.68
2023-04-24T07:54:18.355Z,23.69
2023-04-24T07:59:30.623Z,23.69
2023-04-24T08:04:42.593Z,23.64
2023-04-24T08:09:50.095Z,23.60
2023-04-24T08:15:06.865Z,23.60
2023-04-24T08:20:17.324Z,23.59
2023-04-24T08:25:24.826Z,23.59
2023-04-24T08:31:22.943Z,23.55
2023-04-24T08:36:46.478Z,23.57
2023-04-24T08:41:57.294Z,23.55
2023-04-24T08:47:08.607Z,23.51
2023-04-24T08:52:20.754Z,23.12
2023-04-24T08:57:28.537Z,22.86
2023-04-24T09:02:36.532Z,22.86
2023-04-24T09:07:43.679Z,22.99
2023-04-24T09:12:51.257Z,23.16
2023-04-24T09:17:59.186Z,23.25
2023-04-24T09:23:42.367Z,23.28
2023-04-24T09:29:15.522Z,23.29
2023-04-24T09:34:28.274Z,23.35
2023-04-24T09:39:40.633Z,23.37
2023-04-24T09:44:48.057Z,23.40
2023-04-24T09:50:36.413Z,23.34
2023-04-24T09:55:44.273Z,22.96
2023-04-24T10:00:51.788Z,22.97
2023-04-24T10:05:59.429Z,23.03
2023-04-24T10:11:07.082Z,23.10
2023-04-24T10:16:14.663Z,22.99
2023-04-24T10:21:22.144Z,23.07
2023-04-24T10:26:34.316Z,23.13
2023-04-24T10:31:48.192Z,23.16
2023-04-24T10:36:58.023Z,23.16
2023-04-24T10:42:09.954Z,23.16
2023-04-24T10:47:20.124Z,23.20
2023-04-24T10:52:27.651Z,23.18
2023-04-24T10:57:42.771Z,23.13
2023-04-24T11:03:16.361Z,23.15
2023-04-24T11:08:14.568Z,23.17
2023-04-24T11:13:22.047Z,23.16
2023-04-24T11:18:29.722Z,23.20
2023-04-24T11:23:40.571Z,23.23
2023-04-24T11:28:48.341Z,23.26
2023-04-24T11:33:57.991Z,23.28
2023-04-24T11:39:16.090Z,23.28
2023-04-24T11:44:22.580Z,23.30
2023-04-24T11:49:33.750Z,23.27
2023-04-24T11:54:41.451Z,23.29
2023-04-24T11:59:52.247Z,23.17
2023-04-24T12:05:14.897Z,23.16
2023-04-24T12:10:22.283Z,23.20
2023-04-24T12:15:34.682Z,23.21
2023-04-24T12:20:42.238Z,22.85
2023-04-24T12:25:54.759Z,22.90
2023-04-24T12:31:02.300Z,22.70
2023-04-24T12:36:14.848Z,22.50
2023-04-24T12:41:31.763Z,22.69
2023-04-24T12:46:39.805Z,22.85
2023-04-24T12:51:47.367Z,22.93
2023-04-24T12:56:58.305Z,22.95
2023-04-24T13:02:09.377Z,22.93
2023-04-24T13:07:17.781Z,22.94
2023-04-24T13:12:25.181Z,22.97
2023-04-24T13:17:41.407Z,22.94
2023-04-24T13:22:49.268Z,22.97
2023-04-24T13:27:56.911Z,23.00
2023-04-24T13:33:15.188Z,23.01
2023-04-24T13:38:35.772Z,23.03
2023-04-24T13:43:43.588Z,23.08
2023-04-24T13:48:57.580Z,23.06
2023-04-24T13:54:05.487Z,23.08
2023-04-24T13:59:13.034Z,23.08
2023-04-24T14:04:23.622Z,23.06
2023-04-24T14:10:16.760Z,23.07
2023-04-24T14:14:45.377Z,23.10
2023-04-24T14:20:08.649Z,23.06
2023-04-24T14:25:19.545Z,23.06
2023-04-24T14:30:29.126Z,23.10
2023-04-24T14:36:03.952Z,23.09
2023-04-24T14:41:26.914Z,23.09
2023-04-24T14:47:01.996Z,23.05
2023-04-24T14:52:14.796Z,22.81
2023-04-24T14:57:22.376Z,22.79
2023-04-24T15:02:29.972Z,22.86
2023-04-24T15:07:52.707Z,22.90
2023-04-24T15:12:51.569Z,22.90
2023-04-24T15:18:04.942Z,22.87
2023-04-24T15:23:12.602Z,22.91
2023-04-24T15:28:20.170Z,22.92
2023-04-24T15:33:37.732Z,22.95
2023-04-24T15:38:45.010Z,22.95
2023-04-24T15:44:28.282Z,22.93
2023-04-24T15:49:36.299Z,22.80
2023-04-24T15:54:52.886Z,22.62
2023-04-24T16:00:07.178Z,22.57
2023-04-24T16:05:29.949Z,22.05
2023-04-24T16:10:37.406Z,22.53
2023-04-24T16:15:45.052Z,22.75
2023-04-24T16:20:52.379Z,23.01
2023-04-24T16:25:59.551Z,23.18
2023-04-24T16:31:06.791Z,23.38
2023-04-24T16:36:13.933Z,23.37
2023-04-24T16:41:21.118Z,23.45
2023-04-24T16:46:28.426Z,23.51
2023-04-24T16:51:35.695Z,23.59
2023-04-24T16:56:42.856Z,23.66
2023-04-24T17:01:50.033Z,23.72
2023-04-24T17:06:57.534Z,23.76
2023-04-24T17:12:04.737Z,23.82
2023-04-24T17:17:12.195Z,23.85
2023-04-24T17:22:19.946Z,23.90
2023-04-24T17:27:27.275Z,23.97
2023-04-24T17:32:34.474Z,24.01
2023-04-24T17:37:42.154Z,24.06
2023-04-24T17:42:49.752Z,24.26
2023-04-24T17:47:57.351Z,24.34
2023-04-24T17:53:05.633Z,24.40
2023-04-24T17:58:12.902Z,24.50
2023-04-24T18:03:20.960Z,24.56
2023-04-24T18:08:28.463Z,24.62
2023-04-24T18:13:36.161Z,24.53
2023-04-24T18:18:43.870Z,24.59
2023-04-24T18:23:51.621Z,24.62
2023-04-24T18:28:59.321Z,24.64
2023-04-24T18:34:06.929Z,24.66
2023-04-24T18:39:14.637Z,24.74
2023-04-24T18:44:22.380Z,24.84
2023-04-24T18:49:30.185Z,24.92
2023-04-24T18:54:37.992Z,24.98
2023-04-24T18:59:45.508Z,24.95
2023-04-24T19:04:53.132Z,25.04
2023-04-24T19:10:01.076Z,25.08
2023-04-24T19:15:08.605Z,25.16
2023-04-24T19:20:15.928Z,25.14
2023-04-24T19:25:23.509Z,25.16
2023-04-24T19:30:31.707Z,25.18
2023-04-24T19:35:39.086Z,25.14
2023-04-24T19:40:46.659Z,25.13
2023-04-24T19:45:54.076Z,25.15
2023-04-24T19:51:01.551Z,25.08
2023-04-24T19:56:08.928Z,25.12
2023-04-24T20:01:16.202Z,25.16
2023-04-24T20:06:23.494Z,25.23
2023-04-24T20:11:30.811Z,25.31
2023-04-24T20:16:38.341Z,25.37
2023-04-24T20:21:45.918Z,25.39
2023-04-24T20:26:53.433Z,25.38
2023-04-24T20:32:01.136Z,25.40
2023-04-24T20:37:09.049Z,25.45
2023-04-24T20:42:16.408Z,25.50
2023-04-24T20:47:23.878Z,25.47
2023-04-24T20:52:31.157Z,25.47
2023-04-24T20:57:38.571Z,25.44
2023-04-24T21:02:45.894Z,25.42
2023-04-24T21:07:53.006Z,25.42
2023-04-24T21:13:00.333Z,25.37
2023-04-24T21:18:07.532Z,25.44
2023-04-24T21:23:14.780Z,25.37
2023-04-24T21:28:21.958Z,25.40
2023-04-24T21:33:29.236Z,25.36
2023-04-24T21:38:36.513Z,25.40
2023-04-24T21:43:45.780Z,25.43
2023-04-24T21:48:51.258Z,25.40
2023-04-24T21:53:58.491Z,25.45
2023-04-24T21:59:08.515Z,25.45
2023-04-24T22:04:16.017Z,25.49
2023-04-24T22:09:23.065Z,25.47
2023-04-24T22:14:30.384Z,25.51
2023-04-24T22:19:37.849Z,25.50
2023-04-24T22:24:45.274Z,25.51
2023-04-24T22:29:52.648Z,25.61
2023-04-24T22:34:59.872Z,25.69
2023-04-24T22:40:07.101Z,25.78
2023-04-24T22:45:14.415Z,25.75
2023-04-24T22:50:21.640Z,25.77
2023-04-24T22:55:29.416Z,25.71
2023-04-24T23:01:19.017Z,25.62
2023-04-24T23:07:04.302Z,25.53
2023-04-24T23:12:39.469Z,25.46
2023-04-24T23:18:25.329Z,25.39
2023-04-24T23:24:07.753Z,25.31
2023-04-24T23:29:50.374Z,25.19
2023-04-24T23:35:36.162Z,25.05
2023-04-24T23:41:38.637Z,24.94
2023-04-24T23:46:36.700Z,24.87
2023-04-24T23:57:42.354Z,24.69
